Time;durP1;ratioP1;P1;durP2;ratioP2;P2;SDS_P1;SDS_P2;PMS_P1;PMS_P2;Temp;Humidity;BMP_temperature;BMP_pressure;BME280_temperature;BME280_humidity;BME280_pressure;Samples;Min_cycle;Max_cycle;Signal;HPM_P1;HPM_P2
2021/11/21 00:00:25;;;;;;;38.03;23.52;;;;;;;1.05;100.00;95827.22;1026940;28;20071;-65
2021/11/21 00:00:55;;;;;;;41.00;23.65;;;;;;;1.04;100.00;95819.66;1028338;28;20129;-62
2021/11/21 00:01:26;;;;;;;39.92;23.02;;;;;;;1.06;100.00;95818.47;1030441;28;20023;-64
2021/11/21 00:01:56;;;;;;;39.05;23.73;;;;;;;1.09;100.00;95818.09;1027725;28;20054;-65
2021/11/21 00:02:27;;;;;;;40.28;23.95;;;;;;;1.08;100.00;95819.09;1026667;28;20038;-69
2021/11/21 00:02:58;;;;;;;40.60;23.02;;;;;;;1.09;100.00;95817.28;1023971;28;20106;-65
2021/11/21 00:03:28;;;;;;;40.13;23.67;;;;;;;0.99;100.00;95809.94;1023115;28;20042;-66
2021/11/21 00:03:59;;;;;;;44.28;25.60;;;;;;;1.04;100.00;95814.50;1028304;28;20034;-66
2021/11/21 00:04:29;;;;;;;38.63;24.35;;;;;;;1.09;100.00;95817.28;1026889;28;20633;-64
2021/11/21 00:05:00;;;;;;;44.42;25.98;;;;;;;1.13;100.00;95823.63;1024472;28;20617;-65
2021/11/21 00:05:31;;;;;;;37.20;22.42;;;;;;;1.13;100.00;95818.47;1022836;28;20027;-65
2021/11/21 00:06:01;;;;;;;38.33;22.40;;;;;;;1.11;100.00;95817.91;1032482;28;20034;-63
2021/11/21 00:06:32;;;;;;;44.92;24.38;;;;;;;1.08;100.00;95813.91;1038336;28;20115;-65
2021/11/21 00:07:02;;;;;;;44.03;24.85;;;;;;;1.05;100.00;95813.53;1042950;28;20040;-65
2021/11/21 00:07:33;;;;;;;39.45;23.73;;;;;;;1.10;100.00;95814.50;1042807;28;20025;-66
2021/11/21 00:08:03;;;;;;;38.83;22.27;;;;;;;1.03;100.00;95803.38;1038549;28;20071;-65
2021/11/21 00:08:34;;;;;;;44.38;25.20;;;;;;;1.14;100.00;95805.38;1033914;28;20018;-65
2021/11/21 00:09:04;;;;;;;37.83;23.13;;;;;;;0.94;100.00;95783.94;1034811;28;20053;-66
2021/11/21 00:09:35;;;;;;;38.13;23.67;;;;;;;1.14;100.00;95810.53;1027879;28;20311;-66
2021/11/21 00:10:06;;;;;;;41.90;24.05;;;;;;;1.16;100.00;95798.19;1024827;28;20031;-66
2021/11/21 00:10:36;;;;;;;39.13;22.67;;;;;;;1.13;100.00;95806.34;1027982;28;20051;-64
2021/11/21 00:11:07;;;;;;;40.08;23.50;;;;;;;1.07;100.00;95796.00;1024842;28;20118;-66
2021/11/21 00:11:38;;;;;;;41.95;23.58;;;;;;;1.13;100.00;95810.72;1030822;28;20847;-65
2021/11/21 00:12:08;;;;;;;40.47;23.27;;;;;;;1.16;100.00;95808.53;1023897;28;20066;-65
2021/11/21 00:12:39;;;;;;;42.38;24.70;;;;;;;0.98;100.00;95774.78;1026417;28;20331;-65
2021/11/21 00:13:09;;;;;;;44.58;25.70;;;;;;;1.16;100.00;95798.19;1026894;28;20113;-67
2021/11/21 00:13:40;;;;;;;46.60;26.35;;;;;;;1.16;100.00;95802.56;1026491;28;20026;-66
2021/11/21 00:14:10;;;;;;;50.05;26.45;;;;;;;1.11;100.00;95795.44;1033686;28;20121;-63
2021/11/21 00:14:41;;;;;;;54.10;29.35;;;;;;;1.05;100.00;95801.41;1035602;28;20088;-65
2021/11/21 00:15:11;;;;;;;47.20;26.10;;;;;;;1.08;100.00;95800.22;1029963;28;20069;-66
2021/11/21 00:15:42;;;;;;;49.03;25.90;;;;;;;1.10;100.00;95801.56;1036852;28;20485;-65
2021/11/21 00:16:12;;;;;;;48.55;26.17;;;;;;;1.09;100.00;95789.66;1038695;28;20157;-65
2021/11/21 00:16:43;;;;;;;45.13;25.60;;;;;;;1.10;100.00;95790.44;1032064;28;20096;-65
2021/11/21 00:17:13;;;;;;;44.83;25.20;;;;;;;1.17;100.00;95793.81;1030908;28;20045;-65
2021/11/21 00:17:44;;;;;;;44.25;25.52;;;;;;;1.16;100.00;95787.84;1031496;28;20043;-65
2021/11/21 00:18:14;;;;;;;45.95;26.10;;;;;;;1.12;100.00;95785.88;1030607;28;20085;-67
2021/11/21 00:18:45;;;;;;;45.40;25.75;;;;;;;1.20;100.00;95790.03;1032323;28;20037;-66
2021/11/21 00:19:15;;;;;;;43.40;25.42;;;;;;;1.24;100.00;95794.63;1026665;28;20584;-66
2021/11/21 00:19:46;;;;;;;42.83;26.00;;;;;;;1.22;100.00;95793.22;1030619;28;20031;-66
2021/11/21 00:20:16;;;;;;;43.50;25.05;;;;;;;1.21;100.00;95784.69;1027962;28;20031;-66
2021/11/21 00:20:47;;;;;;;39.10;23.65;;;;;;;1.16;100.00;95777.50;1027151;28;20022;-66
2021/11/21 00:21:18;;;;;;;43.90;24.58;;;;;;;1.22;100.00;95786.25;1027179;28;20019;-66
2021/11/21 00:21:48;;;;;;;47.80;25.95;;;;;;;1.12;100.00;95775.56;1027264;28;20022;-66
2021/11/21 00:22:18;;;;;;;45.83;25.38;;;;;;;1.17;100.00;95778.31;1022030;29;20477;-65
2021/11/21 00:22:49;;;;;;;44.90;24.17;;;;;;;1.21;100.00;95786.44;1019529;29;20031;-66
2021/11/21 00:23:21;;;;;;;44.53;24.55;;;;;;;1.18;100.00;95788.47;1023509;28;20023;-66
2021/11/21 00:23:51;;;;;;;43.78;24.73;;;;;;;1.16;100.00;95780.09;1024195;28;20027;-66
2021/11/21 00:24:22;;;;;;;40.35;24.27;;;;;;;1.20;100.00;95777.13;1027376;28;20294;-66
2021/11/21 00:24:52;;;;;;;39.55;23.15;;;;;;;1.15;100.00;95775.94;1027387;28;20019;-65
2021/11/21 00:25:23;;;;;;;43.78;25.63;;;;;;;1.22;100.00;95775.13;1023630;28;20414;-65
2021/11/21 00:25:53;;;;;;;38.75;23.20;;;;;;;1.23;100.00;95782.66;1021842;29;20015;-64
2021/11/21 00:26:24;;;;;;;42.28;24.00;;;;;;;1.25;100.00;95777.31;1023300;29;20023;-67
2021/11/21 00:26:54;;;;;;;42.15;24.33;;;;;;;1.20;100.00;95775.31;1027389;28;20027;-65
2021/11/21 00:27:25;;;;;;;40.85;24.02;;;;;;;1.12;100.00;95770.38;1029968;28;20057;-66
2021/11/21 00:27:55;;;;;;;41.60;24.30;;;;;;;1.12;100.00;95768.59;1035640;28;20064;-66
2021/11/21 00:28:26;;;;;;;40.90;24.10;;;;;;;1.10;100.00;95762.81;1031427;28;20018;-66
2021/11/21 00:28:57;;;;;;;45.78;24.95;;;;;;;1.15;100.00;95770.78;1031402;28;20113;-65
2021/11/21 00:29:27;;;;;;;44.22;25.08;;;;;;;1.20;100.00;95769.38;1030697;28;20022;-66
2021/11/21 00:29:57;;;;;;;45.28;25.02;;;;;;;1.17;100.00;95762.81;1029263;28;20106;-65
2021/11/21 00:30:28;;;;;;;43.70;25.75;;;;;;;1.14;100.00;95765.78;1032135;28;20695;-67
2021/11/21 00:30:59;;;;;;;40.10;23.95;;;;;;;1.13;100.00;95762.41;1034571;28;20025;-65
2021/11/21 00:31:29;;;;;;;34.92;23.02;;;;;;;1.15;100.00;95760.44;1031779;28;20112;-66
2021/11/21 00:32:00;;;;;;;51.83;26.95;;;;;;;1.07;100.00;95755.47;1035688;28;20034;-65
2021/11/21 00:32:30;;;;;;;43.13;25.23;;;;;;;1.05;100.00;95756.69;1030544;28;20014;-65
2021/11/21 00:33:01;;;;;;;40.78;24.88;;;;;;;1.07;100.00;95754.69;1023231;28;20062;-65
2021/11/21 00:33:32;;;;;;;39.70;24.73;;;;;;;1.10;100.00;95757.66;1023394;29;20503;-65
2021/11/21 00:34:03;;;;;;;38.90;23.04;;;;;;;1.10;100.00;95756.84;1026349;28;20589;-65
2021/11/21 00:34:34;;;;;;;40.72;23.25;;;;;;;1.06;100.00;95753.88;1026247;28;20062;-64
2021/11/21 00:35:04;;;;;;;40.90;23.52;;;;;;;1.06;100.00;95753.09;1032033;28;20489;-65
2021/11/21 00:35:35;;;;;;;48.50;25.55;;;;;;;1.01;100.00;95737.41;1026800;28;20065;-66
2021/11/21 00:36:06;;;;;;;43.47;24.48;;;;;;;1.10;100.00;95756.84;1030421;28;20113;-66
2021/11/21 00:36:36;;;;;;;45.95;24.98;;;;;;;1.10;100.00;95757.66;1032902;28;20033;-66
2021/11/21 00:37:07;;;;;;;43.03;25.05;;;;;;;1.09;100.00;95756.06;1039791;28;20026;-66
2021/11/21 00:37:37;;;;;;;43.03;24.08;;;;;;;1.01;100.00;95745.97;1036635;28;20022;-65
2021/11/21 00:38:08;;;;;;;41.17;24.15;;;;;;;1.03;100.00;95743.94;1029283;28;20029;-64
2021/11/21 00:38:38;;;;;;;44.83;24.58;;;;;;;1.01;100.00;95750.34;1033043;28;20019;-65
2021/11/21 00:39:09;;;;;;;43.58;25.25;;;;;;;0.98;100.00;95738.63;1031650;28;20053;-65
2021/11/21 00:39:39;;;;;;;44.45;25.05;;;;;;;0.97;100.00;95737.00;1023007;28;20855;-66
2021/11/21 00:40:10;;;;;;;42.30;24.25;;;;;;;1.02;100.00;95744.97;1027208;28;20035;-67
2021/11/21 00:40:40;;;;;;;45.08;25.45;;;;;;;1.00;100.00;95744.34;1029887;28;20026;-65
2021/11/21 00:41:11;;;;;;;60.70;28.33;;;;;;;0.86;100.00;95746.16;1026326;28;20022;-65
2021/11/21 00:41:44;;;;;;;50.25;26.10;;;;;;;0.89;100.00;95739.81;1027598;28;20109;-65
2021/11/21 00:42:16;;;;;;;45.22;25.32;;;;;;;0.93;100.00;95741.00;1035618;28;20673;-65
2021/11/21 00:42:47;;;;;;;47.64;25.78;;;;;;;0.85;100.00;95723.16;1036559;28;20033;-65
2021/11/21 00:43:21;;;;;;;56.85;27.90;;;;;;;0.89;100.00;95734.66;1032147;28;20027;-65
2021/11/21 00:43:51;;;;;;;49.08;26.44;;;;;;;0.90;100.00;95731.06;1035826;28;20026;-66
2021/11/21 00:44:22;;;;;;;46.55;25.30;;;;;;;0.91;100.00;95730.09;1032991;28;20033;-64
2021/11/21 00:44:53;;;;;;;45.96;25.96;;;;;;;0.87;100.00;95736.63;1026415;28;20014;-66
2021/11/21 00:45:24;;;;;;;50.67;26.50;;;;;;;0.84;100.00;95731.88;1032334;28;20441;-65
2021/11/21 00:45:54;;;;;;;48.60;26.38;;;;;;;0.81;100.00;95725.34;1031345;28;20049;-65
2021/11/21 00:46:26;;;;;;;50.78;27.30;;;;;;;0.84;100.00;95731.88;1028038;28;20129;-66
2021/11/21 00:46:56;;;;;;;46.66;26.30;;;;;;;0.88;100.00;95727.91;1027200;28;20119;-65
2021/11/21 00:47:27;;;;;;;49.50;26.77;;;;;;;0.85;100.00;95717.97;1024120;28;20046;-65
2021/11/21 00:47:57;;;;;;;49.40;26.42;;;;;;;0.88;100.00;95723.53;1031155;28;20045;-66
2021/11/21 00:48:28;;;;;;;51.92;26.73;;;;;;;0.89;100.00;95730.28;1024191;28;20679;-65
2021/11/21 00:48:59;;;;;;;47.75;27.40;;;;;;;0.93;100.00;95730.66;1031540;28;20037;-65
2021/11/21 00:49:30;;;;;;;50.62;26.30;;;;;;;0.91;100.00;95730.09;1027547;28;20062;-62
2021/11/21 00:50:02;;;;;;;40.92;24.50;;;;;;;0.90;100.00;95725.91;1023978;28;20050;-65
2021/11/21 00:50:33;;;;;;;49.14;27.10;;;;;;;0.89;100.00;95724.31;1025213;28;20031;-65
2021/11/21 00:51:04;;;;;;;52.00;27.33;;;;;;;0.77;100.00;95713.00;1029290;28;20034;-65
2021/11/21 00:51:35;;;;;;;52.42;27.20;;;;;;;0.80;100.00;95725.53;1028109;28;20079;-65
2021/11/21 00:52:06;;;;;;;52.10;27.18;;;;;;;0.74;100.00;95713.41;1034862;28;20030;-66
2021/11/21 00:52:37;;;;;;;47.65;26.67;;;;;;;0.86;100.00;95725.50;1033102;28;20469;-65
2021/11/21 00:53:08;;;;;;;48.16;27.36;;;;;;;0.85;100.00;95728.31;1032557;28;20018;-66
2021/11/21 00:53:42;;;;;;;54.55;26.55;;;;;;;0.84;100.00;95717.19;1037180;28;20030;-63
2021/11/21 00:54:25;;;;;;;50.10;27.60;;;;;;;0.88;100.00;95722.75;1030505;28;20477;-65
2021/11/21 00:55:14;;;;;;;49.18;27.18;;;;;;;0.87;100.00;95721.13;1034712;28;20504;-66
2021/11/21 00:56:01;;;;;;;46.48;24.68;;;;;;;0.86;100.00;95720.34;1037629;28;20033;-67
2021/11/21 00:56:33;;;;;;;44.76;25.10;;;;;;;0.76;100.00;95703.69;1035401;28;20032;-65
2021/11/21 00:57:03;;;;;;;43.16;24.54;;;;;;;0.87;100.00;95721.13;1030484;28;20149;-65
2021/11/21 00:57:34;;;;;;;40.75;23.75;;;;;;;0.89;100.00;95724.31;1033895;28;20065;-65
2021/11/21 00:58:06;;;;;;;48.28;25.83;;;;;;;0.87;100.00;95718.56;1031358;28;20919;-65
2021/11/21 00:58:37;;;;;;;51.08;25.86;;;;;;;0.78;100.00;95712.81;1028591;28;20147;-66
2021/11/21 00:59:07;;;;;;;49.25;25.40;;;;;;;0.79;100.00;95721.34;1035555;28;20041;-65
2021/11/21 00:59:38;;;;;;;46.67;25.98;;;;;;;0.82;100.00;95718.38;1031828;28;20034;-65
2021/11/21 01:00:19;;;;;;;45.64;26.06;;;;;;;0.82;100.00;95721.75;1028994;28;20053;-66
2021/11/21 01:00:50;;;;;;;47.63;27.30;;;;;;;0.83;100.00;95730.28;1036950;28;20033;-63
2021/11/21 01:01:20;;;;;;;52.50;26.88;;;;;;;0.81;100.00;95727.13;1036610;28;20029;-66
2021/11/21 01:01:51;;;;;;;48.08;26.23;;;;;;;0.56;100.00;95694.16;1036226;28;20539;-64
2021/11/21 01:02:23;;;;;;;47.60;26.44;;;;;;;0.80;100.00;95726.31;1032481;28;20600;-66
2021/11/21 01:02:54;;;;;;;50.62;26.46;;;;;;;0.80;100.00;95731.47;1037670;28;20509;-66
2021/11/21 01:03:24;;;;;;;50.00;27.35;;;;;;;0.79;100.00;95734.28;1035947;28;20065;-66
2021/11/21 01:03:56;;;;;;;44.05;25.85;;;;;;;0.84;100.00;95737.03;1037689;28;20031;-65
2021/11/21 01:04:29;;;;;;;46.48;25.44;;;;;;;0.83;100.00;95731.06;1034727;28;20064;-65
2021/11/21 01:05:00;;;;;;;45.70;25.80;;;;;;;0.78;100.00;95727.53;1034849;28;20061;-65
2021/11/21 01:05:31;;;;;;;48.22;26.80;;;;;;;0.83;100.00;95735.44;1032808;28;20069;-64
2021/11/21 01:06:01;;;;;;;45.15;25.80;;;;;;;0.74;100.00;95727.13;1033003;28;20026;-66
2021/11/21 01:06:32;;;;;;;46.40;26.13;;;;;;;0.77;100.00;95729.31;1031098;28;20018;-65
2021/11/21 01:07:02;;;;;;;46.40;26.15;;;;;;;0.85;100.00;95746.38;1027519;28;20023;-65
2021/11/21 01:07:36;;;;;;;43.17;25.00;;;;;;;0.83;100.00;95741.41;1030551;28;21538;-63
2021/11/21 01:08:07;;;;;;;42.48;24.76;;;;;;;0.83;100.00;95746.56;1031310;28;20025;-65
2021/11/21 01:08:37;;;;;;;40.90;23.90;;;;;;;0.78;100.00;95728.31;1033313;28;20010;-66
2021/11/21 01:09:08;;;;;;;42.53;24.73;;;;;;;0.84;100.00;95747.34;1035815;28;20026;-65
2021/11/21 01:09:38;;;;;;;40.15;24.83;;;;;;;0.83;100.00;95744.00;1034038;28;20022;-64
2021/11/21 01:10:14;;;;;;;43.05;24.27;;;;;;;0.77;100.00;95729.31;1035588;28;20014;-64
2021/11/21 01:10:46;;;;;;;39.56;25.02;;;;;;;0.81;100.00;95747.78;1034228;28;20014;-65
2021/11/21 01:11:17;;;;;;;39.10;23.08;;;;;;;0.83;100.00;95740.63;1035084;28;20026;-63
2021/11/21 01:11:47;;;;;;;38.22;23.63;;;;;;;0.86;100.00;95741.00;1029034;28;20023;-66
2021/11/21 01:12:18;;;;;;;40.10;23.88;;;;;;;0.82;100.00;95729.50;1027912;28;20023;-64
2021/11/21 01:12:48;;;;;;;41.97;24.70;;;;;;;0.76;100.00;95734.66;1027345;28;20046;-63
2021/11/21 01:13:19;;;;;;;46.22;26.00;;;;;;;0.75;100.00;95739.03;1023866;28;20667;-62
2021/11/21 01:13:49;;;;;;;49.55;26.13;;;;;;;0.79;100.00;95744.59;1031369;28;20508;-65
2021/11/21 01:14:20;;;;;;;42.83;25.35;;;;;;;0.79;100.00;95742.03;1027765;28;20023;-62
2021/11/21 01:14:50;;;;;;;47.85;26.20;;;;;;;0.79;100.00;95734.28;1027128;28;20101;-65
2021/11/21 01:15:22;;;;;;;45.45;25.83;;;;;;;0.84;100.00;95742.19;1030368;28;20113;-65
2021/11/21 01:15:53;;;;;;;39.60;23.36;;;;;;;0.83;100.00;95741.41;1030493;28;20420;-62
2021/11/21 01:16:23;;;;;;;40.95;25.13;;;;;;;0.78;100.00;95732.69;1027463;28;20057;-64
2021/11/21 01:16:54;;;;;;;43.25;24.35;;;;;;;0.79;100.00;95736.84;1023504;28;20034;-64
2021/11/21 01:17:25;;;;;;;42.95;25.33;;;;;;;0.83;100.00;95733.66;1027002;28;20089;-64
2021/11/21 01:17:55;;;;;;;40.13;24.58;;;;;;;0.80;100.00;95730.69;1026548;28;20089;-68
2021/11/21 01:18:27;;;;;;;37.60;23.95;;;;;;;0.82;100.00;95744.19;1030290;28;20022;-64
2021/11/21 01:18:57;;;;;;;39.14;23.96;;;;;;;0.79;100.00;95724.72;1023720;29;20588;-64
2021/11/21 01:19:28;;;;;;;37.40;23.60;;;;;;;0.83;100.00;95736.25;1031268;28;20061;-65
2021/11/21 01:20:02;;;;;;;36.38;23.83;;;;;;;0.86;100.00;95730.69;1032223;28;20022;-63
2021/11/21 01:20:33;;;;;;;40.48;23.46;;;;;;;0.89;100.00;95729.47;1032426;28;20027;-66
2021/11/21 01:21:04;;;;;;;37.48;23.12;;;;;;;0.84;100.00;95721.53;1031245;28;20027;-65
2021/11/21 01:21:35;;;;;;;39.83;24.65;;;;;;;0.91;100.00;95730.09;1028262;28;20073;-66
2021/11/21 01:22:05;;;;;;;40.03;24.63;;;;;;;0.85;100.00;95725.72;1027296;28;20406;-65
2021/11/21 01:22:36;;;;;;;39.15;23.33;;;;;;;0.88;100.00;95730.50;1020165;28;20057;-66
2021/11/21 01:23:10;;;;;;;43.42;24.98;;;;;;;0.86;100.00;95725.50;1023077;28;20046;-64
2021/11/21 01:23:40;;;;;;;40.72;23.44;;;;;;;0.89;100.00;95724.31;1028141;28;20040;-65
2021/11/21 01:24:11;;;;;;;45.40;25.33;;;;;;;0.85;100.00;95723.16;1035877;28;20028;-66
2021/11/21 01:24:46;;;;;;;43.36;25.16;;;;;;;0.78;100.00;95712.81;1039300;28;20025;-66
2021/11/21 01:25:17;;;;;;;43.33;25.10;;;;;;;0.76;100.00;95709.63;1029629;28;20529;-64
2021/11/21 01:25:47;;;;;;;46.38;26.23;;;;;;;0.85;100.00;95720.56;1028101;28;20031;-65
2021/11/21 01:26:18;;;;;;;41.60;25.98;;;;;;;0.82;100.00;95716.59;1029108;28;20023;-66
2021/11/21 01:26:48;;;;;;;48.22;25.95;;;;;;;0.89;100.00;95721.72;1027385;28;20030;-65
2021/11/21 01:27:19;;;;;;;41.58;25.05;;;;;;;0.88;100.00;95720.94;1027041;28;20035;-66
2021/11/21 01:27:50;;;;;;;45.45;26.33;;;;;;;0.82;100.00;95713.22;1032736;28;20037;-66
2021/11/21 01:28:20;;;;;;;42.92;26.05;;;;;;;0.80;100.00;95712.59;1027639;28;20426;-66
2021/11/21 01:28:51;;;;;;;40.17;24.70;;;;;;;0.75;100.00;95697.72;1025407;28;20026;-65
2021/11/21 01:29:21;;;;;;;37.05;23.13;;;;;;;0.83;100.00;95719.94;1020620;29;20047;-66
2021/11/21 01:29:52;;;;;;;36.22;23.25;;;;;;;0.75;100.00;95709.84;1025508;28;20019;-66
2021/11/21 01:30:26;;;;;;;35.55;22.58;;;;;;;0.74;100.00;95705.66;1027428;28;20046;-65
2021/11/21 01:30:57;;;;;;;36.30;22.60;;;;;;;0.77;100.00;95713.00;1028860;28;20015;-62
2021/11/21 01:31:27;;;;;;;31.83;22.15;;;;;;;0.79;100.00;95723.94;1022517;28;20050;-66
2021/11/21 01:31:58;;;;;;;34.03;21.80;;;;;;;0.69;100.00;95721.78;1026158;28;20023;-66
2021/11/21 01:32:28;;;;;;;35.10;22.38;;;;;;;0.72;100.00;95723.16;1028118;28;20054;-66
2021/11/21 01:32:59;;;;;;;33.25;21.40;;;;;;;0.65;100.00;95715.41;1035545;28;20071;-66
2021/11/21 01:33:30;;;;;;;32.18;21.54;;;;;;;0.70;100.00;95724.16;1031218;28;20026;-63
2021/11/21 01:34:00;;;;;;;34.35;22.27;;;;;;;0.73;100.00;95732.50;1024004;28;20167;-65
2021/11/21 01:34:31;;;;;;;33.80;22.40;;;;;;;0.75;100.00;95723.56;1023523;29;20471;-66
2021/11/21 01:35:01;;;;;;;33.05;21.98;;;;;;;0.64;100.00;95713.84;1027573;28;20089;-65
2021/11/21 01:35:32;;;;;;;31.05;20.80;;;;;;;0.70;100.00;95720.75;1035570;28;20073;-67
2021/11/21 01:36:03;;;;;;;30.45;21.20;;;;;;;0.68;100.00;95720.97;1031837;28;20559;-66
2021/11/21 01:36:34;;;;;;;33.42;21.30;;;;;;;0.66;100.00;95720.38;1032079;28;20216;-66
2021/11/21 01:37:04;;;;;;;33.03;21.52;;;;;;;0.57;100.00;95710.44;1037558;28;20073;-66
2021/11/21 01:37:35;;;;;;;35.70;21.30;;;;;;;0.54;100.00;95722.00;1039981;28;20067;-66
2021/11/21 01:38:05;;;;;;;36.40;21.75;;;;;;;0.55;100.00;95715.81;1039549;28;20053;-66
2021/11/21 01:38:37;;;;;;;35.63;21.48;;;;;;;0.57;100.00;95708.69;1032415;28;20030;-65
2021/11/21 01:39:07;;;;;;;36.08;22.40;;;;;;;0.60;100.00;95715.22;1035692;28;20484;-65
2021/11/21 01:39:38;;;;;;;36.45;23.13;;;;;;;0.59;100.00;95711.84;1029406;28;20035;-65
2021/11/21 01:40:11;;;;;;;35.50;22.63;;;;;;;0.63;100.00;95710.44;1033266;28;20880;-66
2021/11/21 01:40:41;;;;;;;35.94;22.50;;;;;;;0.66;100.00;95712.63;1028056;28;20089;-63
2021/11/21 01:41:12;;;;;;;32.80;22.10;;;;;;;0.65;100.00;95708.47;1031883;28;20105;-65
2021/11/21 01:41:42;;;;;;;30.92;20.67;;;;;;;0.65;100.00;95712.84;1039547;28;20056;-65
2021/11/21 01:42:13;;;;;;;34.50;21.45;;;;;;;0.57;100.00;95698.34;1039386;28;20543;-65
2021/11/21 01:42:47;;;;;;;37.10;23.15;;;;;;;0.54;100.00;95700.53;1035645;28;20034;-66
2021/11/21 01:43:17;;;;;;;37.24;22.08;;;;;;;0.54;100.00;95701.34;1031006;28;20721;-66
2021/11/21 01:43:48;;;;;;;37.95;21.75;;;;;;;0.60;100.00;95703.09;1023551;29;20094;-66
2021/11/21 01:44:18;;;;;;;32.60;21.00;;;;;;;0.53;100.00;95693.78;1019318;29;20819;-66
2021/11/21 01:44:50;;;;;;;32.95;21.08;;;;;;;0.56;100.00;95703.72;1025980;28;20027;-64
2021/11/21 01:45:21;;;;;;;35.05;21.60;;;;;;;0.59;100.00;95713.63;1022284;29;20279;-66
2021/11/21 01:45:51;;;;;;;34.38;22.44;;;;;;;0.58;100.00;95702.53;1024110;28;20081;-66
2021/11/21 01:46:32;;;;;;;33.40;20.92;;;;;;;0.60;100.00;95710.84;1026257;28;20116;-66
2021/11/21 01:47:04;;;;;;;34.32;21.98;;;;;;;0.59;100.00;95709.25;1026426;28;20059;-63
2021/11/21 01:47:40;;;;;;;36.94;22.04;;;;;;;0.55;100.00;95695.19;1026671;28;20050;-65
2021/11/21 01:48:11;;;;;;;33.46;20.86;;;;;;;0.59;100.00;95704.09;1029449;28;20034;-64
2021/11/21 01:48:41;;;;;;;35.65;21.42;;;;;;;0.60;100.00;95699.72;1030708;28;20457;-65
2021/11/21 01:49:12;;;;;;;36.42;22.90;;;;;;;0.54;100.00;95695.34;1030831;28;20029;-64
2021/11/21 01:49:43;;;;;;;39.83;24.58;;;;;;;0.63;100.00;95697.53;1026930;28;20129;-66
2021/11/21 01:50:17;;;;;;;38.58;22.92;;;;;;;0.61;100.00;95694.38;1022909;29;20031;-65
2021/11/21 01:50:48;;;;;;;36.02;22.70;;;;;;;0.56;100.00;95688.22;1026571;28;20068;-66
2021/11/21 01:51:19;;;;;;;36.42;22.77;;;;;;;0.58;100.00;95699.94;1029647;28;20479;-64
2021/11/21 01:51:50;;;;;;;36.15;22.92;;;;;;;0.55;100.00;95692.59;1029847;28;20033;-63
2021/11/21 01:52:20;;;;;;;37.34;22.30;;;;;;;0.56;100.00;95693.38;1034730;28;20045;-66
2021/11/21 01:52:51;;;;;;;33.92;22.40;;;;;;;0.57;100.00;95693.19;1030677;28;20139;-66
2021/11/21 01:53:21;;;;;;;37.47;23.70;;;;;;;0.54;100.00;95690.19;1027015;28;20027;-65
2021/11/21 01:53:52;;;;;;;36.95;22.02;;;;;;;0.55;100.00;95682.25;1030792;28;20022;-66
2021/11/21 01:54:22;;;;;;;36.47;22.20;;;;;;;0.58;100.00;95692.19;1026847;28;20035;-66
2021/11/21 01:54:53;;;;;;;39.90;24.38;;;;;;;0.53;100.00;95689.41;1026970;28;20431;-66
2021/11/21 01:55:23;;;;;;;37.15;23.55;;;;;;;0.47;100.00;95680.69;1029878;28;20033;-65
2021/11/21 01:55:54;;;;;;;39.47;24.63;;;;;;;0.53;100.00;95689.41;1034657;28;20026;-66
2021/11/21 01:56:26;;;;;;;36.88;22.90;;;;;;;0.55;100.00;95686.63;1030756;28;20588;-66
2021/11/21 01:56:57;;;;;;;38.00;24.00;;;;;;;0.58;100.00;95683.66;1026877;28;20051;-65
2021/11/21 01:57:27;;;;;;;33.97;21.80;;;;;;;0.62;100.00;95683.03;1026970;28;20070;-65
2021/11/21 01:57:58;;;;;;;34.88;22.33;;;;;;;0.57;100.00;95672.53;1026460;28;20035;-65
2021/11/21 01:58:29;;;;;;;32.60;22.35;;;;;;;0.66;100.00;95684.22;1027094;28;20045;-66
2021/11/21 01:58:59;;;;;;;34.75;22.33;;;;;;;0.65;100.00;95682.66;1031092;28;20033;-66
2021/11/21 01:59:30;;;;;;;31.75;21.63;;;;;;;0.60;100.00;95669.53;1033278;28;20058;-64
2021/11/21 02:00:02;;;;;;;34.95;22.45;;;;;;;0.61;100.00;95670.34;1033372;28;20049;-62
2021/11/21 02:00:37;;;;;;;32.14;20.80;;;;;;;0.63;100.00;95673.50;1030570;28;20032;-65
2021/11/21 02:01:07;;;;;;;32.82;20.68;;;;;;;0.61;100.00;95665.97;1022960;28;20035;-62
2021/11/21 02:01:38;;;;;;;35.80;22.25;;;;;;;0.54;100.00;95672.94;1024565;28;20031;-65
2021/11/21 02:02:08;;;;;;;31.23;20.45;;;;;;;0.38;100.00;95648.34;1023538;28;20827;-66
2021/11/21 02:02:39;;;;;;;33.25;21.08;;;;;;;0.62;100.00;95672.72;1024575;28;20027;-65
2021/11/21 02:03:10;;;;;;;29.84;20.82;;;;;;;0.65;100.00;95672.31;1026686;28;20034;-65
2021/11/21 02:03:40;;;;;;;29.50;20.42;;;;;;;0.69;100.00;95677.88;1025032;28;20073;-67
2021/11/21 02:04:11;;;;;;;31.73;20.92;;;;;;;0.69;100.00;95675.28;1030836;28;20494;-67
2021/11/21 02:04:41;;;;;;;31.90;22.10;;;;;;;0.72;100.00;95671.50;1032943;28;20019;-65
2021/11/21 02:05:12;;;;;;;31.52;21.35;;;;;;;0.68;100.00;95671.91;1036713;28;20101;-65
2021/11/21 02:05:43;;;;;;;30.10;20.25;;;;;;;0.66;100.00;95671.31;1037568;28;20022;-65
2021/11/21 02:06:13;;;;;;;30.33;20.42;;;;;;;0.54;100.00;95657.47;1034862;28;20017;-65
2021/11/21 02:06:44;;;;;;;27.75;20.40;;;;;;;0.64;100.00;95663.00;1034940;28;20439;-66
2021/11/21 02:07:14;;;;;;;28.75;19.48;;;;;;;0.66;100.00;95665.38;1030633;28;20390;-65
2021/11/21 02:07:47;;;;;;;30.17;21.17;;;;;;;0.63;100.00;95658.03;1027279;28;20503;-66
2021/11/21 02:08:18;;;;;;;28.38;19.58;;;;;;;0.68;100.00;95666.75;1022753;29;20099;-66
2021/11/21 02:08:52;;;;;;;26.83;19.52;;;;;;;0.68;100.00;95665.97;1022768;28;20034;-66
2021/11/21 02:09:22;;;;;;;28.24;19.68;;;;;;;0.67;100.00;95665.19;1022972;29;20546;-66
2021/11/21 02:09:53;;;;;;;26.58;19.33;;;;;;;0.69;100.00;95665.75;1030717;28;20112;-67
2021/11/21 02:10:23;;;;;;;27.83;20.08;;;;;;;0.59;100.00;95647.31;1023178;29;20062;-66
2021/11/21 02:10:59;;;;;;;29.65;20.92;;;;;;;0.65;100.00;95664.56;1029988;28;20019;-66
2021/11/21 02:11:29;;;;;;;28.04;20.06;;;;;;;0.68;100.00;95655.63;1029892;28;20061;-65
2021/11/21 02:12:00;;;;;;;23.50;18.10;;;;;;;0.66;100.00;95653.25;1027800;28;20057;-66
2021/11/21 02:12:30;;;;;;;25.52;18.58;;;;;;;0.68;100.00;95656.44;1025670;28;20069;-66
2021/11/21 02:13:01;;;;;;;25.90;18.77;;;;;;;0.66;100.00;95652.44;1022829;28;20047;-66
2021/11/21 02:13:31;;;;;;;24.77;18.17;;;;;;;0.61;100.00;95649.69;1027254;28;20516;-67
2021/11/21 02:14:02;;;;;;;23.80;17.02;;;;;;;0.60;100.00;95643.72;1022896;28;20513;-65
2021/11/21 02:14:32;;;;;;;23.42;17.48;;;;;;;0.64;100.00;95654.47;1026964;28;20031;-66
2021/11/21 02:15:07;;;;;;;24.17;17.85;;;;;;;0.64;100.00;95650.09;1022737;29;20122;-67
2021/11/21 02:15:37;;;;;;;27.08;18.86;;;;;;;0.57;100.00;95645.91;1027096;28;20138;-66
2021/11/21 02:16:08;;;;;;;25.92;18.50;;;;;;;0.54;100.00;95649.72;1027020;28;20073;-65
2021/11/21 02:16:39;;;;;;;25.77;18.30;;;;;;;0.54;100.00;95646.31;1026285;28;20115;-65
2021/11/21 02:17:09;;;;;;;27.58;18.75;;;;;;;0.60;100.00;95648.88;1027257;28;20038;-67
2021/11/21 02:17:40;;;;;;;26.58;18.38;;;;;;;0.60;100.00;95648.88;1026998;28;20457;-65
2021/11/21 02:18:12;;;;;;;28.83;19.95;;;;;;;0.57;100.00;95654.47;1032905;28;20465;-66
2021/11/21 02:18:45;;;;;;;27.04;18.52;;;;;;;0.55;100.00;95648.72;1035437;28;20096;-66
2021/11/21 02:19:19;;;;;;;24.78;18.36;;;;;;;0.50;100.00;95637.38;1029889;28;20063;-65
2021/11/21 02:19:49;;;;;;;23.90;17.76;;;;;;;0.59;100.00;95647.31;1032981;28;20054;-67
2021/11/21 02:20:29;;;;;;;25.70;18.50;;;;;;;0.60;100.00;95646.28;1031173;28;20062;-65
2021/11/21 02:21:00;;;;;;;23.02;16.65;;;;;;;0.57;100.00;95645.91;1023187;28;20042;-64
2021/11/21 02:21:30;;;;;;;25.02;17.67;;;;;;;0.58;100.00;95645.72;1027036;28;20058;-65
2021/11/21 02:22:01;;;;;;;24.83;18.33;;;;;;;0.52;100.00;95636.19;1033767;28;20092;-65
2021/11/21 02:22:32;;;;;;;26.42;18.65;;;;;;;0.43;100.00;95635.59;1036704;28;20029;-66
2021/11/21 02:23:04;;;;;;;27.25;18.63;;;;;;;0.40;100.00;95630.06;1026913;28;20030;-65
2021/11/21 02:23:35;;;;;;;24.98;18.22;;;;;;;0.40;100.00;95623.13;1034949;28;20053;-66